sensor_id;sensor_type;location;lat;lon;timestamp;pressure;altitude;pressure_sealevel;temperature;humidity
10145;BME280;5113;41.822;23.564;2023-05-20T00:00:17;-11249.50;;;11.39;100.00
10145;BME280;5113;41.822;23.564;2023-05-20T00:03:23;-11234.31;;;10.84;100.00
10145;BME280;5113;41.822;23.564;2023-05-20T00:06:30;-11235.59;;;10.89;100.00
10145;BME280;5113;41.822;23.564;2023-05-20T00:09:39;-11230.50;;;10.71;100.00
10145;BME280;5113;41.822;23.564;2023-05-20T00:12:45;-11223.34;;;10.45;100.00
10145;BME280;5113;41.822;23.564;2023-05-20T00:15:51;-11229.94;;;10.69;100.00
10145;BME280;5113;41.822;23.564;2023-05-20T00:18:58;-11218.97;;;10.29;100.00
10145;BME280;5113;41.822;23.564;2023-05-20T00:22:05;-11232.06;;;10.76;100.00
10145;BME280;5113;41.822;23.564;2023-05-20T00:25:12;-11228.13;;;10.62;100.00
10145;BME280;5113;41.822;23.564;2023-05-20T00:28:19;-11228.69;;;10.64;100.00
10145;BME280;5113;41.822;23.564;2023-05-20T00:31:27;-11227.41;;;10.59;100.00
10145;BME280;5113;41.822;23.564;2023-05-20T00:34:34;-11219.25;;;10.30;100.00
10145;BME280;5113;41.822;23.564;2023-05-20T00:37:40;-11217.44;;;10.23;100.00
10145;BME280;5113;41.822;23.564;2023-05-20T00:40:48;-11216.72;;;10.21;100.00
10145;BME280;5113;41.822;23.564;2023-05-20T00:43:55;-11210.53;;;9.99;100.00
10145;BME280;5113;41.822;23.564;2023-05-20T00:47:02;-11212.09;;;10.04;100.00
10145;BME280;5113;41.822;23.564;2023-05-20T00:50:09;-11216.16;;;10.19;100.00
10145;BME280;5113;41.822;23.564;2023-05-20T00:53:16;-11216.59;;;10.20;100.00
10145;BME280;5113;41.822;23.564;2023-05-20T00:56:25;-11213.78;;;10.10;100.00
10145;BME280;5113;41.822;23.564;2023-05-20T00:59:31;-11215.19;;;10.15;100.00
10145;BME280;5113;41.822;23.564;2023-05-20T01:02:38;-11212.50;;;10.06;100.00
10145;BME280;5113;41.822;23.564;2023-05-20T01:05:45;-11212.22;;;10.05;100.00
10145;BME280;5113;41.822;23.564;2023-05-20T01:08:51;-11207.16;;;9.86;100.00
10145;BME280;5113;41.822;23.564;2023-05-20T01:12:02;-11210.53;;;9.99;100.00
10145;BME280;5113;41.822;23.564;2023-05-20T01:15:12;-11209.97;;;9.97;100.00
10145;BME280;5113;41.822;23.564;2023-05-20T01:18:22;-11205.06;;;9.79;100.00
10145;BME280;5113;41.822;23.564;2023-05-20T01:21:29;-11205.34;;;9.80;100.00
10145;BME280;5113;41.822;23.564;2023-05-20T01:24:40;-11189.88;;;9.24;100.00
10145;BME280;5113;41.822;23.564;2023-05-20T01:27:47;-11182.84;;;8.99;100.00
10145;BME280;5113;41.822;23.564;2023-05-20T01:30:55;-11178.91;;;8.84;100.00
10145;BME280;5113;41.822;23.564;2023-05-20T01:34:04;-11161.47;;;8.21;100.00
10145;BME280;5113;41.822;23.564;2023-05-20T01:37:11;-11177.34;;;8.79;100.00
10145;BME280;5113;41.822;23.564;2023-05-20T01:40:20;-11168.66;;;8.47;100.00
10145;BME280;5113;41.822;23.564;2023-05-20T01:43:27;-11177.91;;;8.81;100.00
10145;BME280;5113;41.822;23.564;2023-05-20T01:46:33;-11186.63;;;9.12;100.00
10145;BME280;5113;41.822;23.564;2023-05-20T01:49:40;-11189.44;;;9.22;100.00
10145;BME280;5113;41.822;23.564;2023-05-20T01:52:46;-11183.81;;;9.02;100.00
10145;BME280;5113;41.822;23.564;2023-05-20T01:55:53;-11168.94;;;8.48;100.00
10145;BME280;5113;41.822;23.564;2023-05-20T01:59:00;-11165.13;;;8.35;100.00
10145;BME280;5113;41.822;23.564;2023-05-20T02:02:06;-11163.59;;;8.29;100.00
10145;BME280;5113;41.822;23.564;2023-05-20T02:05:12;-11156.41;;;8.03;100.00
10145;BME280;5113;41.822;23.564;2023-05-20T02:08:18;-11155.00;;;7.98;100.00
10145;BME280;5113;41.822;23.564;2023-05-20T02:11:26;-11152.06;;;7.87;100.00
10145;BME280;5113;41.822;23.564;2023-05-20T02:14:33;-11144.91;;;7.61;100.00
10145;BME280;5113;41.822;23.564;2023-05-20T02:17:39;-11151.22;;;7.84;100.00
10145;BME280;5113;41.822;23.564;2023-05-20T02:20:47;-11167.25;;;8.42;100.00
10145;BME280;5113;41.822;23.564;2023-05-20T02:23:53;-11169.50;;;8.50;100.00
10145;BME280;5113;41.822;23.564;2023-05-20T02:27:01;-11166.41;;;8.39;100.00
10145;BME280;5113;41.822;23.564;2023-05-20T02:30:08;-11163.72;;;8.29;100.00
10145;BME280;5113;41.822;23.564;2023-05-20T02:33:15;-11162.75;;;8.26;100.00
10145;BME280;5113;41.822;23.564;2023-05-20T02:36:21;-11155.28;;;7.99;100.00
10145;BME280;5113;41.822;23.564;2023-05-20T02:39:27;-11163.72;;;8.29;100.00
10145;BME280;5113;41.822;23.564;2023-05-20T02:42:35;-11168.50;;;8.47;100.00
10145;BME280;5113;41.822;23.564;2023-05-20T02:45:41;-11167.38;;;8.43;100.00
10145;BME280;5113;41.822;23.564;2023-05-20T02:48:48;-11168.94;;;8.48;100.00
10145;BME280;5113;41.822;23.564;2023-05-20T02:51:54;-11167.25;;;8.42;100.00
10145;BME280;5113;41.822;23.564;2023-05-20T02:55:00;-11165.00;;;8.34;100.00
10145;BME280;5113;41.822;23.564;2023-05-20T02:58:08;-11174.25;;;8.68;100.00
10145;BME280;5113;41.822;23.564;2023-05-20T03:01:14;-11170.47;;;8.54;100.00
10145;BME280;5113;41.822;23.564;2023-05-20T03:04:20;-11170.63;;;8.54;100.00
10145;BME280;5113;41.822;23.564;2023-05-20T03:07:29;-11170.91;;;8.55;100.00
10145;BME280;5113;41.822;23.564;2023-05-20T03:10:38;-11165.28;;;8.35;100.00
10145;BME280;5113;41.822;23.564;2023-05-20T03:13:46;-11164.44;;;8.32;100.00
10145;BME280;5113;41.822;23.564;2023-05-20T03:16:52;-11170.91;;;8.55;100.00
10145;BME280;5113;41.822;23.564;2023-05-20T03:20:00;-11165.97;;;8.38;100.00
10145;BME280;5113;41.822;23.564;2023-05-20T03:23:08;-11161.19;;;8.20;100.00
10145;BME280;5113;41.822;23.564;2023-05-20T03:26:14;-11151.50;;;7.85;100.00
10145;BME280;5113;41.822;23.564;2023-05-20T03:29:22;-11128.47;;;7.02;100.00
10145;BME280;5113;41.822;23.564;2023-05-20T03:32:29;-11128.59;;;7.03;100.00
10145;BME280;5113;41.822;23.564;2023-05-20T03:35:35;-11124.94;;;6.89;100.00
10145;BME280;5113;41.822;23.564;2023-05-20T03:38:41;-11133.66;;;7.21;100.00
10145;BME280;5113;41.822;23.564;2023-05-20T03:41:47;-11135.19;;;7.26;100.00
10145;BME280;5113;41.822;23.564;2023-05-20T03:44:55;-11149.94;;;7.80;100.00
10145;BME280;5113;41.822;23.564;2023-05-20T03:48:01;-11150.09;;;7.80;100.00
10145;BME280;5113;41.822;23.564;2023-05-20T03:51:08;-11164.72;;;8.33;100.00
10145;BME280;5113;41.822;23.564;2023-05-20T03:54:14;-11168.78;;;8.48;100.00
10145;BME280;5113;41.822;23.564;2023-05-20T03:57:21;-11173.00;;;8.63;100.00
10145;BME280;5113;41.822;23.564;2023-05-20T04:00:29;-11177.22;;;8.78;100.00
10145;BME280;5113;41.822;23.564;2023-05-20T04:03:35;-11180.44;;;8.90;100.00
10145;BME280;5113;41.822;23.564;2023-05-20T04:06:41;-11181.84;;;8.95;100.00
10145;BME280;5113;41.822;23.564;2023-05-20T04:09:47;-11186.91;;;9.13;100.00
10145;BME280;5113;41.822;23.564;2023-05-20T04:12:53;-11191.28;;;9.29;100.00
10145;BME280;5113;41.822;23.564;2023-05-20T04:16:01;-11197.59;;;9.52;100.00
10145;BME280;5113;41.822;23.564;2023-05-20T04:19:08;-11200.97;;;9.64;100.00
10145;BME280;5113;41.822;23.564;2023-05-20T04:22:15;-11209.28;;;9.94;100.00
10145;BME280;5113;41.822;23.564;2023-05-20T04:25:21;-11207.03;;;9.86;100.00
10145;BME280;5113;41.822;23.564;2023-05-20T04:28:28;-11209.41;;;9.94;100.00
10145;BME280;5113;41.822;23.564;2023-05-20T04:31:36;-11202.66;;;9.70;100.00
10145;BME280;5113;41.822;23.564;2023-05-20T04:34:42;-11206.31;;;9.83;100.00
10145;BME280;5113;41.822;23.564;2023-05-20T04:37:48;-11212.50;;;10.06;100.00
10145;BME280;5113;41.822;23.564;2023-05-20T04:40:57;-11221.50;;;10.38;100.00
10145;BME280;5113;41.822;23.564;2023-05-20T04:44:04;-11213.06;;;10.08;100.00
10145;BME280;5113;41.822;23.564;2023-05-20T04:47:12;-11209.00;;;9.93;100.00
10145;BME280;5113;41.822;23.564;2023-05-20T04:50:19;-11214.19;;;10.12;100.00
10145;BME280;5113;41.822;23.564;2023-05-20T04:53:25;-11232.34;;;10.77;100.00
10145;BME280;5113;41.822;23.564;2023-05-20T04:56:31;-11229.94;;;10.69;100.00
10145;BME280;5113;41.822;23.564;2023-05-20T04:59:38;-11232.34;;;10.77;100.00
10145;BME280;5113;41.822;23.564;2023-05-20T05:02:46;-11237.28;;;10.95;100.00
10145;BME280;5113;41.822;23.564;2023-05-20T05:05:54;-11249.94;;;11.41;100.00
10145;BME280;5113;41.822;23.564;2023-05-20T05:09:01;-11256.69;;;11.65;100.00
10145;BME280;5113;41.822;23.564;2023-05-20T05:12:08;-11268.38;;;12.07;100.00
10145;BME280;5113;41.822;23.564;2023-05-20T05:15:15;-11272.72;;;12.23;100.00
10145;BME280;5113;41.822;23.564;2023-05-20T05:18:22;-11279.19;;;12.46;100.00
10145;BME280;5113;41.822;23.564;2023-05-20T05:21:29;-11283.69;;;12.63;100.00
10145;BME280;5113;41.822;23.564;2023-05-20T05:24:35;-11285.69;;;12.70;100.00
10145;BME280;5113;41.822;23.564;2023-05-20T05:27:41;-11297.50;;;13.12;100.00
10145;BME280;5113;41.822;23.564;2023-05-20T05:30:48;-11294.41;;;13.01;100.00
10145;BME280;5113;41.822;23.564;2023-05-20T05:33:55;-11306.22;;;13.44;100.00
10145;BME280;5113;41.822;23.564;2023-05-20T05:37:01;-11301.31;;;13.26;100.00
10145;BME280;5113;41.822;23.564;2023-05-20T05:40:08;-11305.66;;;13.42;100.00
10145;BME280;5113;41.822;23.564;2023-05-20T05:43:14;-11314.41;;;13.73;100.00
10145;BME280;5113;41.822;23.564;2023-05-20T05:46:21;-11321.56;;;13.99;100.00
10145;BME280;5113;41.822;23.564;2023-05-20T05:49:28;-11316.66;;;13.81;100.00
10145;BME280;5113;41.822;23.564;2023-05-20T05:52:35;-11337.22;;;14.56;100.00
10145;BME280;5113;41.822;23.564;2023-05-20T05:55:41;-11338.06;;;14.59;100.00
10145;BME280;5113;41.822;23.564;2023-05-20T05:58:47;-11340.16;;;14.66;100.00
10145;BME280;5113;41.822;23.564;2023-05-20T06:01:53;-11341.00;;;14.69;100.00
10145;BME280;5113;41.822;23.564;2023-05-20T06:05:01;-11351.84;;;15.08;100.00
10145;BME280;5113;41.822;23.564;2023-05-20T06:08:07;-11343.13;;;14.77;99.91
10145;BME280;5113;41.822;23.564;2023-05-20T06:11:14;-11372.44;;;15.82;96.06
10145;BME280;5113;41.822;23.564;2023-05-20T06:14:20;-11370.72;;;15.76;91.93
10145;BME280;5113;41.822;23.564;2023-05-20T06:17:27;-11373.41;;;15.86;90.33
10145;BME280;5113;41.822;23.564;2023-05-20T06:20:34;-11373.00;;;15.84;88.15
10145;BME280;5113;41.822;23.564;2023-05-20T06:23:41;-11360.59;;;15.40;90.56
10145;BME280;5113;41.822;23.564;2023-05-20T06:26:47;-11361.44;;;15.43;91.90
10145;BME280;5113;41.822;23.564;2023-05-20T06:29:54;-11387.06;;;16.35;89.69
10145;BME280;5113;41.822;23.564;2023-05-20T06:33:00;-11397.50;;;16.73;83.19
10145;BME280;5113;41.822;23.564;2023-05-20T06:36:08;-11388.91;;;16.42;84.37
10145;BME280;5113;41.822;23.564;2023-05-20T06:39:15;-11413.16;;;17.29;75.93
10145;BME280;5113;41.822;23.564;2023-05-20T06:42:22;-11404.00;;;16.96;77.71
10145;BME280;5113;41.822;23.564;2023-05-20T06:45:28;-11429.09;;;17.87;76.17
10145;BME280;5113;41.822;23.564;2023-05-20T06:48:34;-11418.66;;;17.49;78.95
10145;BME280;5113;41.822;23.564;2023-05-20T06:51:42;-11415.12;;;17.36;79.11
10145;BME280;5113;41.822;23.564;2023-05-20T06:54:48;-11410.19;;;17.19;82.34
10145;BME280;5113;41.822;23.564;2023-05-20T06:57:55;-11445.28;;;18.45;74.17
10145;BME280;5113;41.822;23.564;2023-05-20T07:01:01;-11434.16;;;18.05;74.12
10145;BME280;5113;41.822;23.564;2023-05-20T07:04:07;-11449.09;;;18.59;76.01
10145;BME280;5113;41.822;23.564;2023-05-20T07:07:15;-11438.94;;;18.22;67.46
10145;BME280;5113;41.822;23.564;2023-05-20T07:10:22;-11456.56;;;18.86;62.79
10145;BME280;5113;41.822;23.564;2023-05-20T07:13:29;-11471.09;;;19.38;67.44
10145;BME280;5113;41.822;23.564;2023-05-20T07:16:35;-11489.16;;;20.03;66.29
10145;BME280;5113;41.822;23.564;2023-05-20T07:19:42;-11449.66;;;18.61;71.98
10145;BME280;5113;41.822;23.564;2023-05-20T07:22:49;-11464.75;;;19.15;73.70
10145;BME280;5113;41.822;23.564;2023-05-20T07:25:56;-11464.75;;;19.15;78.03
10145;BME280;5113;41.822;23.564;2023-05-20T07:29:02;-11475.63;;;19.54;76.24
10145;BME280;5113;41.822;23.564;2023-05-20T07:32:08;-11459.81;;;18.97;79.89
10145;BME280;5113;41.822;23.564;2023-05-20T07:35:15;-11474.19;;;19.49;77.25
10145;BME280;5113;41.822;23.564;2023-05-20T07:38:23;-11468.00;;;19.27;76.88
10145;BME280;5113;41.822;23.564;2023-05-20T07:41:29;-11485.47;;;19.90;73.85
10145;BME280;5113;41.822;23.564;2023-05-20T07:44:35;-11482.25;;;19.78;73.24
10145;BME280;5113;41.822;23.564;2023-05-20T07:47:41;-11483.78;;;19.84;70.35
10145;BME280;5113;41.822;23.564;2023-05-20T07:50:48;-11499.88;;;20.41;68.33
10145;BME280;5113;41.822;23.564;2023-05-20T07:53:55;-11483.09;;;19.81;66.49
10145;BME280;5113;41.822;23.564;2023-05-20T07:57:02;-11521.44;;;21.19;59.88
10145;BME280;5113;41.822;23.564;2023-05-20T08:00:09;-11514.25;;;20.93;56.16
10145;BME280;5113;41.822;23.564;2023-05-20T08:03:17;-11507.22;;;20.68;52.81
10145;BME280;5113;41.822;23.564;2023-05-20T08:06:23;-11536.28;;;21.72;48.95
10145;BME280;5113;41.822;23.564;2023-05-20T08:09:34;-11575.06;;;23.12;44.23
10145;BME280;5113;41.822;23.564;2023-05-20T08:12:40;-11517.22;;;21.04;51.86
10145;BME280;5113;41.822;23.564;2023-05-20T08:15:47;-11559.69;;;22.57;49.17
10145;BME280;5113;41.822;23.564;2023-05-20T08:18:53;-11542.91;;;21.96;49.52
10145;BME280;5113;41.822;23.564;2023-05-20T08:21:59;-11564.78;;;22.75;47.79
10145;BME280;5113;41.822;23.564;2023-05-20T08:25:08;-11564.22;;;22.73;46.73
10145;BME280;5113;41.822;23.564;2023-05-20T08:28:15;-11595.53;;;23.86;44.12
10145;BME280;5113;41.822;23.564;2023-05-20T08:31:21;-11584.66;;;23.47;43.29
10145;BME280;5113;41.822;23.564;2023-05-20T08:34:27;-11584.53;;;23.46;44.50
10145;BME280;5113;41.822;23.564;2023-05-20T08:37:34;-11559.97;;;22.58;44.52
10145;BME280;5113;41.822;23.564;2023-05-20T08:40:41;-11554.06;;;22.36;45.49
10145;BME280;5113;41.822;23.564;2023-05-20T08:43:48;-11564.34;;;22.73;45.40
10145;BME280;5113;41.822;23.564;2023-05-20T08:46:56;-11602.31;;;24.10;44.78
10145;BME280;5113;41.822;23.564;2023-05-20T08:50:03;-11556.88;;;22.47;46.94
10145;BME280;5113;41.822;23.564;2023-05-20T08:53:10;-11555.19;;;22.40;47.05
10145;BME280;5113;41.822;23.564;2023-05-20T08:56:18;-11576.75;;;23.18;44.85
10145;BME280;5113;41.822;23.564;2023-05-20T08:59:28;-11545.72;;;22.06;45.15
10145;BME280;5113;41.822;23.564;2023-05-20T09:02:36;-11535.41;;;21.69;46.84
10145;BME280;5113;41.822;23.564;2023-05-20T09:05:42;-11547.56;;;22.13;45.04
10145;BME280;5113;41.822;23.564;2023-05-20T09:08:49;-11566.75;;;22.82;45.91
10145;BME280;5113;41.822;23.564;2023-05-20T09:11:58;-11537.81;;;21.78;48.06
10145;BME280;5113;41.822;23.564;2023-05-20T09:15:05;-11542.19;;;21.94;50.14
10145;BME280;5113;41.822;23.564;2023-05-20T09:18:12;-11508.06;;;20.71;49.37
10145;BME280;5113;41.822;23.564;2023-05-20T09:21:24;-11530.47;;;21.52;47.05
10145;BME280;5113;41.822;23.564;2023-05-20T09:24:31;-11521.59;;;21.20;46.62
10145;BME280;5113;41.822;23.564;2023-05-20T09:27:40;-11546.72;;;22.10;48.67
10145;BME280;5113;41.822;23.564;2023-05-20T09:30:48;-11524.69;;;21.31;48.80
10145;BME280;5113;41.822;23.564;2023-05-20T09:33:55;-11554.63;;;22.38;42.90
10145;BME280;5113;41.822;23.564;2023-05-20T09:37:02;-11586.38;;;23.53;44.77
10145;BME280;5113;41.822;23.564;2023-05-20T09:40:11;-11571.28;;;22.98;45.54
10145;BME280;5113;41.822;23.564;2023-05-20T09:43:20;-11547.13;;;22.12;41.22
10145;BME280;5113;41.822;23.564;2023-05-20T09:46:27;-11538.53;;;21.81;43.29
10145;BME280;5113;41.822;23.564;2023-05-20T09:49:34;-11541.06;;;21.90;44.89
10145;BME280;5113;41.822;23.564;2023-05-20T09:52:42;-11547.28;;;22.12;43.27
10145;BME280;5113;41.822;23.564;2023-05-20T09:55:49;-11566.03;;;22.80;42.32
10145;BME280;5113;41.822;23.564;2023-05-20T09:58:59;-11586.50;;;23.53;39.99
10145;BME280;5113;41.822;23.564;2023-05-20T10:02:07;-11602.03;;;24.09;39.67
10145;BME280;5113;41.822;23.564;2023-05-20T10:05:18;-11610.22;;;24.39;42.35
10145;BME280;5113;41.822;23.564;2023-05-20T10:08:41;-11612.47;;;24.47;39.56
10145;BME280;5113;41.822;23.564;2023-05-20T10:12:01;-11629.28;;;25.07;37.61
10145;BME280;5113;41.822;23.564;2023-05-20T10:15:17;-11657.81;;;26.10;37.27
10145;BME280;5113;41.822;23.564;2023-05-20T10:18:35;-11631.41;;;25.15;39.03
10145;BME280;5113;41.822;23.564;2023-05-20T10:21:55;-11623.78;;;24.87;37.75
10145;BME280;5113;41.822;23.564;2023-05-20T10:25:04;-11641.72;;;25.52;36.33
10145;BME280;5113;41.822;23.564;2023-05-20T10:28:11;-11637.63;;;25.37;36.06
10145;BME280;5113;41.822;23.564;2023-05-20T10:31:21;-11599.63;;;24.00;37.36
10145;BME280;5113;41.822;23.564;2023-05-20T10:34:28;-11626.19;;;24.96;36.44
10145;BME280;5113;41.822;23.564;2023-05-20T10:37:49;-11604.56;;;24.18;37.22
10145;BME280;5113;41.822;23.564;2023-05-20T10:41:07;-11564.50;;;22.74;40.51
10145;BME280;5113;41.822;23.564;2023-05-20T10:44:15;-11543.03;;;21.97;43.67
10145;BME280;5113;41.822;23.564;2023-05-20T10:47:22;-11525.84;;;21.35;43.24
10145;BME280;5113;41.822;23.564;2023-05-20T10:50:33;-11531.59;;;21.56;43.97
10145;BME280;5113;41.822;23.564;2023-05-20T10:53:41;-11528.38;;;21.44;44.61
10145;BME280;5113;41.822;23.564;2023-05-20T10:56:51;-11521.88;;;21.21;44.32
10145;BME280;5113;41.822;23.564;2023-05-20T10:59:58;-11537.25;;;21.76;43.99
10145;BME280;5113;41.822;23.564;2023-05-20T11:03:06;-11560.53;;;22.60;40.60
10145;BME280;5113;41.822;23.564;2023-05-20T11:06:14;-11596.81;;;23.90;37.23
10145;BME280;5113;41.822;23.564;2023-05-20T11:09:22;-11614.59;;;24.54;36.14
10145;BME280;5113;41.822;23.564;2023-05-20T11:12:28;-11600.34;;;24.03;36.57
10145;BME280;5113;41.822;23.564;2023-05-20T11:15:35;-11586.50;;;23.53;36.29
10145;BME280;5113;41.822;23.564;2023-05-20T11:18:43;-11546.16;;;22.08;39.05
10145;BME280;5113;41.822;23.564;2023-05-20T11:21:50;-11562.22;;;22.66;41.09
10145;BME280;5113;41.822;23.564;2023-05-20T11:24:56;-11537.97;;;21.79;42.07
10145;BME280;5113;41.822;23.564;2023-05-20T11:28:02;-11539.94;;;21.86;40.28
10145;BME280;5113;41.822;23.564;2023-05-20T11:31:09;-11591.88;;;23.73;39.80
10145;BME280;5113;41.822;23.564;2023-05-20T11:34:19;-11568.72;;;22.89;38.41
10145;BME280;5113;41.822;23.564;2023-05-20T11:37:29;-11557.16;;;22.48;40.05
10145;BME280;5113;41.822;23.564;2023-05-20T11:40:36;-11544.31;;;22.01;40.87
10145;BME280;5113;41.822;23.564;2023-05-20T11:43:56;-11545.59;;;22.06;41.35
10145;BME280;5113;41.822;23.564;2023-05-20T11:47:03;-11530.47;;;21.52;42.16
10145;BME280;5113;41.822;23.564;2023-05-20T11:50:16;-11544.31;;;22.01;42.93
10145;BME280;5113;41.822;23.564;2023-05-20T11:53:23;-11530.63;;;21.52;43.22
10145;BME280;5113;41.822;23.564;2023-05-20T11:56:30;-11516.78;;;21.02;42.01
10145;BME280;5113;41.822;23.564;2023-05-20T11:59:38;-11505.50;;;20.62;43.25
10145;BME280;5113;41.822;23.564;2023-05-20T12:02:45;-11508.91;;;20.74;45.36
10145;BME280;5113;41.822;23.564;2023-05-20T12:05:54;-11518.22;;;21.07;44.12
10145;BME280;5113;41.822;23.564;2023-05-20T12:09:02;-11508.06;;;20.71;43.47
10145;BME280;5113;41.822;23.564;2023-05-20T12:12:11;-11509.47;;;20.76;46.41
10145;BME280;5113;41.822;23.564;2023-05-20T12:15:18;-11491.41;;;20.11;48.30
10145;BME280;5113;41.822;23.564;2023-05-20T12:18:24;-11503.53;;;20.55;48.21
10145;BME280;5113;41.822;23.564;2023-05-20T12:21:32;-11485.75;;;19.91;49.99
10145;BME280;5113;41.822;23.564;2023-05-20T12:24:38;-11497.03;;;20.31;49.79
10145;BME280;5113;41.822;23.564;2023-05-20T12:27:46;-11491.13;;;20.10;50.69
10145;BME280;5113;41.822;23.564;2023-05-20T12:30:53;-11488.59;;;20.01;50.92
10145;BME280;5113;41.822;23.564;2023-05-20T12:33:59;-11472.22;;;19.42;50.96
10145;BME280;5113;41.822;23.564;2023-05-20T12:37:07;-11481.25;;;19.74;52.83
10145;BME280;5113;41.822;23.564;2023-05-20T12:40:13;-11469.53;;;19.32;52.42
10145;BME280;5113;41.822;23.564;2023-05-20T12:43:20;-11474.91;;;19.52;52.24
10145;BME280;5113;41.822;23.564;2023-05-20T12:46:27;-11476.19;;;19.56;52.53
10145;BME280;5113;41.822;23.564;2023-05-20T12:49:33;-11470.81;;;19.37;55.03
10145;BME280;5113;41.822;23.564;2023-05-20T12:52:40;-11469.81;;;19.33;53.97
10145;BME280;5113;41.822;23.564;2023-05-20T12:55:47;-11471.94;;;19.41;56.07
10145;BME280;5113;41.822;23.564;2023-05-20T12:58:53;-11465.16;;;19.17;56.17
10145;BME280;5113;41.822;23.564;2023-05-20T13:01:59;-11468.28;;;19.28;54.78
10145;BME280;5113;41.822;23.564;2023-05-20T13:05:06;-11475.91;;;19.55;54.08
10145;BME280;5113;41.822;23.564;2023-05-20T13:08:14;-11490.28;;;20.07;52.51
10145;BME280;5113;41.822;23.564;2023-05-20T13:11:21;-11496.47;;;20.29;53.00
10145;BME280;5113;41.822;23.564;2023-05-20T13:14:27;-11483.78;;;19.84;53.72
10145;BME280;5113;41.822;23.564;2023-05-20T13:17:33;-11466.31;;;19.21;51.86
10145;BME280;5113;41.822;23.564;2023-05-20T13:20:40;-11476.88;;;19.59;52.98
10145;BME280;5113;41.822;23.564;2023-05-20T13:23:47;-11475.91;;;19.55;54.61
10145;BME280;5113;41.822;23.564;2023-05-20T13:26:54;-11467.16;;;19.24;56.46
10145;BME280;5113;41.822;23.564;2023-05-20T13:30:01;-11469.41;;;19.32;56.70
10145;BME280;5113;41.822;23.564;2023-05-20T13:33:07;-11473.63;;;19.47;57.76
10145;BME280;5113;41.822;23.564;2023-05-20T13:36:14;-11467.16;;;19.24;56.90
10145;BME280;5113;41.822;23.564;2023-05-20T13:39:23;-11466.59;;;19.22;58.32
10145;BME280;5113;41.822;23.564;2023-05-20T13:42:30;-11462.06;;;19.05;63.08
10145;BME280;5113;41.822;23.564;2023-05-20T13:45:36;-11481.81;;;19.76;56.32
10145;BME280;5113;41.822;23.564;2023-05-20T13:48:42;-11471.66;;;19.40;58.07
10145;BME280;5113;41.822;23.564;2023-05-20T13:51:48;-11507.34;;;20.68;52.64
10145;BME280;5113;41.822;23.564;2023-05-20T13:54:56;-11491.13;;;20.10;56.46
10145;BME280;5113;41.822;23.564;2023-05-20T13:58:02;-11483.94;;;19.84;55.61
10145;BME280;5113;41.822;23.564;2023-05-20T14:01:09;-11465.72;;;19.19;58.21
10145;BME280;5113;41.822;23.564;2023-05-20T14:04:16;-11471.37;;;19.39;58.03
10145;BME280;5113;41.822;23.564;2023-05-20T14:07:22;-11478.44;;;19.64;54.03
10145;BME280;5113;41.822;23.564;2023-05-20T14:10:29;-11534.84;;;21.67;49.51
10145;BME280;5113;41.822;23.564;2023-05-20T14:13:36;-11545.88;;;22.07;48.46
10145;BME280;5113;41.822;23.564;2023-05-20T14:16:42;-11545.00;;;22.04;47.87
10145;BME280;5113;41.822;23.564;2023-05-20T14:19:48;-11513.69;;;20.91;50.48
10145;BME280;5113;41.822;23.564;2023-05-20T14:22:55;-11483.09;;;19.81;50.04
10145;BME280;5113;41.822;23.564;2023-05-20T14:26:03;-11484.06;;;19.85;52.56
10145;BME280;5113;41.822;23.564;2023-05-20T14:29:09;-11485.47;;;19.90;54.25
10145;BME280;5113;41.822;23.564;2023-05-20T14:32:16;-11479.00;;;19.66;52.12
10145;BME280;5113;41.822;23.564;2023-05-20T14:35:22;-11476.75;;;19.58;52.92
10145;BME280;5113;41.822;23.564;2023-05-20T14:38:29;-11465.59;;;19.18;53.31
10145;BME280;5113;41.822;23.564;2023-05-20T14:41:36;-11456.72;;;18.86;54.24
10145;BME280;5113;41.822;23.564;2023-05-20T14:44:43;-11453.63;;;18.75;54.16
10145;BME280;5113;41.822;23.564;2023-05-20T14:47:51;-11452.19;;;18.70;55.01
10145;BME280;5113;41.822;23.564;2023-05-20T14:50:57;-11446.56;;;18.49;56.73
10145;BME280;5113;41.822;23.564;2023-05-20T14:54:03;-11443.19;;;18.37;56.82
10145;BME280;5113;41.822;23.564;2023-05-20T14:57:11;-11449.38;;;18.60;58.95
10145;BME280;5113;41.822;23.564;2023-05-20T15:00:19;-11447.97;;;18.55;57.25
10145;BME280;5113;41.822;23.564;2023-05-20T15:03:27;-11443.88;;;18.40;58.59
10145;BME280;5113;41.822;23.564;2023-05-20T15:06:33;-11440.91;;;18.29;58.83
10145;BME280;5113;41.822;23.564;2023-05-20T15:09:40;-11445.84;;;18.47;58.80
10145;BME280;5113;41.822;23.564;2023-05-20T15:12:49;-11446.13;;;18.48;59.73
10145;BME280;5113;41.822;23.564;2023-05-20T15:15:57;-11443.59;;;18.39;59.50
10145;BME280;5113;41.822;23.564;2023-05-20T15:19:03;-11439.94;;;18.26;62.39
10145;BME280;5113;41.822;23.564;2023-05-20T15:22:10;-11447.97;;;18.55;58.48
10145;BME280;5113;41.822;23.564;2023-05-20T15:25:16;-11469.69;;;19.33;53.84
10145;BME280;5113;41.822;23.564;2023-05-20T15:28:23;-11447.97;;;18.55;57.86
10145;BME280;5113;41.822;23.564;2023-05-20T15:31:29;-11450.94;;;18.65;58.36
10145;BME280;5113;41.822;23.564;2023-05-20T15:34:36;-11448.53;;;18.57;59.20
10145;BME280;5113;41.822;23.564;2023-05-20T15:37:42;-11451.91;;;18.69;58.49
10145;BME280;5113;41.822;23.564;2023-05-20T15:40:48;-11452.47;;;18.71;58.13
10145;BME280;5113;41.822;23.564;2023-05-20T15:43:56;-11454.19;;;18.77;61.25
10145;BME280;5113;41.822;23.564;2023-05-20T15:47:03;-11449.38;;;18.60;61.47
10145;BME280;5113;41.822;23.564;2023-05-20T15:50:10;-11450.66;;;18.64;61.01
10145;BME280;5113;41.822;23.564;2023-05-20T15:53:16;-11453.91;;;18.76;61.26
10145;BME280;5113;41.822;23.564;2023-05-20T15:56:23;-11440.34;;;18.27;60.73
10145;BME280;5113;41.822;23.564;2023-05-20T15:59:30;-11432.19;;;17.98;59.04
10145;BME280;5113;41.822;23.564;2023-05-20T16:02:37;-11433.88;;;18.04;60.09
10145;BME280;5113;41.822;23.564;2023-05-20T16:05:45;-11431.34;;;17.95;62.71
10145;BME280;5113;41.822;23.564;2023-05-20T16:08:51;-11434.16;;;18.05;61.42
10145;BME280;5113;41.822;23.564;2023-05-20T16:11:58;-11433.03;;;18.01;61.37
10145;BME280;5113;41.822;23.564;2023-05-20T16:15:07;-11422.44;;;17.63;61.84